Time;durP1;ratioP1;P1;durP2;ratioP2;P2;SDS_P1;SDS_P2;PMS_P1;PMS_P2;Temp;Humidity;BMP_temperature;BMP_pressure;BME280_temperature;BME280_humidity;BME280_pressure;Samples;Min_cycle;Max_cycle;Signal;HPM_P1;HPM_P2
2023/11/06 00:00:32;;;;;;;;;;;9.30;99.90;;;;;;5054292;28;19962;-88
2023/11/06 00:02:58;;;;;;;;;;;9.40;99.90;;;;;;5054040;28;20334;-88
2023/11/06 00:05:24;;;;;;;;;;;9.40;99.90;;;;;;5053518;28;19912;-87
2023/11/06 00:07:50;;;;;;;;;;;9.30;99.90;;;;;;5069661;28;20373;-86
2023/11/06 00:10:15;;;;;;;;;;;9.40;99.90;;;;;;5059626;28;19920;-86
2023/11/06 00:12:42;;;;;;;;;;;9.40;99.90;;;;;;5054702;28;19924;-87
2023/11/06 00:15:09;;;;;;;;;;;9.40;99.90;;;;;;5058136;28;19909;-88
2023/11/06 00:17:38;;;;;;;;;;;9.40;99.90;;;;;;5058203;28;19913;-88
2023/11/06 00:20:04;;;;;;;;;;;9.40;99.90;;;;;;5061838;28;19919;-86
2023/11/06 00:22:30;;;;;;;;;;;9.40;99.90;;;;;;5057913;28;20003;-89
2023/11/06 00:24:56;;;;;;;;;;;9.40;99.90;;;;;;5060462;28;19984;-87
2023/11/06 00:27:25;;;;;;;;;;;9.40;99.90;;;;;;5079101;28;19909;-88
2023/11/06 00:29:51;;;;;;;;;;;9.50;99.90;;;;;;5088248;28;19919;-88
2023/11/06 00:32:16;;;;;;;;;;;9.40;99.90;;;;;;5071724;28;19985;-87
2023/11/06 00:34:42;;;;;;;;;;;9.50;99.90;;;;;;5045423;28;19912;-88
2023/11/06 00:37:08;;;;;;;;;;;9.50;99.90;;;;;;5054593;28;20103;-88
2023/11/06 00:39:35;;;;;;;;;;;9.50;99.90;;;;;;5070642;28;19966;-87
2023/11/06 00:42:02;;;;;;;;;;;9.50;99.90;;;;;;5095562;28;19896;-87
2023/11/06 00:44:28;;;;;;;;;;;9.50;99.90;;;;;;5077185;28;19912;-87
2023/11/06 00:46:54;;;;;;;;;;;9.60;99.90;;;;;;5055363;28;19919;-86
2023/11/06 00:49:20;;;;;;;;;;;9.60;99.90;;;;;;5080229;28;19951;-86
2023/11/06 00:51:46;;;;;;;;;;;9.70;99.90;;;;;;5087062;28;20015;-86
2023/11/06 00:54:14;;;;;;;;;;;9.60;99.90;;;;;;5074345;28;19940;-85
2023/11/06 00:56:40;;;;;;;;;;;9.60;99.90;;;;;;5058923;28;20297;-87
2023/11/06 00:59:05;;;;;;;;;;;9.60;99.90;;;;;;5053188;28;19909;-87
2023/11/06 01:01:31;;;;;;;;;;;9.60;99.90;;;;;;5048590;28;20432;-87
2023/11/06 01:03:57;;;;;;;;;;;9.60;99.90;;;;;;5049077;28;19908;-87
2023/11/06 01:06:24;;;;;;;;;;;9.50;99.90;;;;;;5067574;28;19913;-86
2023/11/06 01:08:49;;;;;;;;;;;9.60;99.90;;;;;;5087309;28;19968;-86
2023/11/06 01:11:15;;;;;;;;;;;9.50;99.90;;;;;;5097095;28;19913;-85
2023/11/06 01:13:41;;;;;;;;;;;9.50;99.90;;;;;;5069311;28;20022;-87
2023/11/06 01:16:07;;;;;;;;;;;9.60;99.90;;;;;;5078259;28;19912;-88
2023/11/06 01:18:32;;;;;;;;;;;9.60;99.90;;;;;;5081733;28;19916;-87
2023/11/06 01:20:58;;;;;;;;;;;9.60;99.90;;;;;;5077593;28;19930;-87
2023/11/06 01:23:24;;;;;;;;;;;9.60;99.90;;;;;;5056439;28;19970;-87
2023/11/06 01:25:50;;;;;;;;;;;9.60;99.90;;;;;;5070573;28;20293;-85
2023/11/06 01:28:15;;;;;;;;;;;9.60;99.90;;;;;;5060691;28;19909;-85
2023/11/06 01:30:41;;;;;;;;;;;9.60;99.90;;;;;;5075272;28;19908;-86
2023/11/06 01:33:07;;;;;;;;;;;9.60;99.90;;;;;;5073129;28;19923;-85
2023/11/06 01:35:33;;;;;;;;;;;9.70;99.90;;;;;;5073291;28;19908;-86
2023/11/06 01:37:59;;;;;;;;;;;9.60;99.90;;;;;;5051294;28;19909;-87
2023/11/06 01:40:24;;;;;;;;;;;9.70;99.90;;;;;;5050632;28;19956;-86
2023/11/06 01:42:52;;;;;;;;;;;9.70;99.90;;;;;;5055409;28;19908;-86
2023/11/06 01:45:18;;;;;;;;;;;9.80;99.90;;;;;;5053485;28;20436;-88
2023/11/06 01:47:44;;;;;;;;;;;9.80;99.90;;;;;;5050808;28;20289;-88
2023/11/06 01:50:11;;;;;;;;;;;9.80;99.90;;;;;;5055212;28;19951;-87
2023/11/06 01:52:37;;;;;;;;;;;9.80;99.90;;;;;;5054918;28;19917;-89
2023/11/06 01:55:02;;;;;;;;;;;9.80;99.90;;;;;;5062142;28;19916;-87
2023/11/06 01:57:28;;;;;;;;;;;9.80;99.90;;;;;;5069883;28;19916;-88
2023/11/06 01:59:54;;;;;;;;;;;9.80;99.90;;;;;;5056466;28;19968;-88
2023/11/06 02:02:21;;;;;;;;;;;9.80;99.90;;;;;;5058108;28;19913;-88
2023/11/06 02:04:49;;;;;;;;;;;9.90;99.90;;;;;;5054360;28;19913;-89
2023/11/06 02:07:17;;;;;;;;;;;9.90;99.90;;;;;;5052004;28;20011;-88
2023/11/06 02:09:43;;;;;;;;;;;9.90;99.90;;;;;;5057125;28;19909;-87
2023/11/06 02:12:09;;;;;;;;;;;9.90;99.90;;;;;;5064119;28;19939;-88
2023/11/06 02:14:50;;;;;;;;;;;9.90;99.90;;;;;;5063090;28;19939;-87
2023/11/06 02:17:16;;;;;;;;;;;10.00;99.90;;;;;;5062410;28;19952;-88
2023/11/06 02:19:42;;;;;;;;;;;10.00;99.90;;;;;;5067020;28;20348;-89
2023/11/06 02:22:09;;;;;;;;;;;10.00;99.90;;;;;;5059056;28;19936;-87
2023/11/06 02:24:36;;;;;;;;;;;10.00;99.90;;;;;;5057662;28;19912;-87
2023/11/06 02:27:02;;;;;;;;;;;10.00;99.90;;;;;;5056891;28;19915;-86
2023/11/06 02:29:27;;;;;;;;;;;10.10;99.90;;;;;;5055773;28;19912;-86
2023/11/06 02:31:53;;;;;;;;;;;10.00;99.90;;;;;;5055919;28;19944;-86
2023/11/06 02:34:19;;;;;;;;;;;10.10;99.90;;;;;;5055224;28;20347;-86
2023/11/06 02:36:44;;;;;;;;;;;10.10;99.90;;;;;;5054767;28;19916;-87
2023/11/06 02:39:10;;;;;;;;;;;10.20;99.90;;;;;;5051742;28;19913;-86
2023/11/06 02:41:36;;;;;;;;;;;10.10;99.90;;;;;;5051243;28;19952;-87
2023/11/06 02:44:01;;;;;;;;;;;10.10;99.90;;;;;;5058471;28;19936;-88
2023/11/06 02:46:27;;;;;;;;;;;10.20;99.90;;;;;;5073820;28;19913;-87
2023/11/06 02:48:53;;;;;;;;;;;10.20;99.90;;;;;;5061941;28;19912;-88
2023/11/06 02:51:18;;;;;;;;;;;10.20;99.90;;;;;;5059827;28;19930;-89
2023/11/06 02:53:44;;;;;;;;;;;10.20;99.90;;;;;;5057196;28;19955;-90
2023/11/06 02:56:10;;;;;;;;;;;10.30;99.90;;;;;;5057413;28;20381;-88
2023/11/06 02:58:35;;;;;;;;;;;10.30;99.90;;;;;;5063376;28;19893;-87
2023/11/06 03:01:02;;;;;;;;;;;10.30;99.90;;;;;;5065158;28;19908;-88
2023/11/06 03:03:27;;;;;;;;;;;10.40;99.90;;;;;;5057376;28;19965;-88
2023/11/06 03:05:53;;;;;;;;;;;10.40;99.90;;;;;;5052787;28;20003;-87
2023/11/06 03:08:19;;;;;;;;;;;10.40;99.90;;;;;;5057113;28;19908;-88
2023/11/06 03:10:44;;;;;;;;;;;10.50;99.90;;;;;;5055968;28;19931;-87
2023/11/06 03:13:10;;;;;;;;;;;10.50;99.90;;;;;;5054925;28;19920;-88
2023/11/06 03:15:36;;;;;;;;;;;10.50;99.90;;;;;;5052699;28;19930;-88
2023/11/06 03:18:01;;;;;;;;;;;10.50;99.90;;;;;;5055185;28;19915;-88
2023/11/06 03:20:27;;;;;;;;;;;10.40;99.90;;;;;;5053155;28;19974;-87
2023/11/06 03:22:53;;;;;;;;;;;10.40;99.90;;;;;;5056984;28;19940;-87
2023/11/06 03:25:19;;;;;;;;;;;10.30;99.90;;;;;;5060750;28;19915;-87
2023/11/06 03:27:44;;;;;;;;;;;10.30;99.90;;;;;;5067836;28;19913;-88
2023/11/06 03:30:10;;;;;;;;;;;10.20;99.90;;;;;;5049136;28;19909;-87
2023/11/06 03:32:36;;;;;;;;;;;10.20;99.90;;;;;;5040843;28;19921;-88
2023/11/06 03:35:02;;;;;;;;;;;10.10;99.90;;;;;;5053513;28;19931;-88
2023/11/06 03:37:28;;;;;;;;;;;10.10;99.90;;;;;;5055498;28;20356;-87
2023/11/06 03:39:54;;;;;;;;;;;10.20;99.90;;;;;;5054286;28;19983;-88
2023/11/06 03:42:19;;;;;;;;;;;10.20;99.90;;;;;;5055004;28;20290;-88
2023/11/06 03:44:45;;;;;;;;;;;10.20;99.90;;;;;;5056613;28;19976;-88
2023/11/06 03:47:11;;;;;;;;;;;10.10;99.90;;;;;;5055732;28;19960;-86
2023/11/06 03:49:36;;;;;;;;;;;10.10;99.90;;;;;;5060632;28;19972;-86
2023/11/06 03:52:03;;;;;;;;;;;10.10;99.90;;;;;;5073627;28;19916;-86
2023/11/06 03:54:29;;;;;;;;;;;10.10;99.90;;;;;;5059787;28;19917;-86
2023/11/06 03:56:55;;;;;;;;;;;10.10;99.90;;;;;;5039347;28;19913;-86
2023/11/06 03:59:20;;;;;;;;;;;10.00;99.90;;;;;;5058536;28;19909;-85
2023/11/06 04:01:46;;;;;;;;;;;10.00;99.90;;;;;;5070342;28;19904;-86
2023/11/06 04:04:12;;;;;;;;;;;9.90;99.90;;;;;;5074951;28;20463;-86
2023/11/06 04:06:37;;;;;;;;;;;9.90;99.90;;;;;;5058379;28;19916;-87
2023/11/06 04:09:04;;;;;;;;;;;9.80;99.90;;;;;;5059476;28;19912;-87
2023/11/06 04:11:29;;;;;;;;;;;9.90;99.90;;;;;;5058596;28;19971;-86
2023/11/06 04:13:56;;;;;;;;;;;9.80;99.90;;;;;;5064952;28;19959;-85
2023/11/06 04:16:22;;;;;;;;;;;9.80;99.90;;;;;;5071183;28;19909;-86
2023/11/06 04:18:48;;;;;;;;;;;9.70;99.90;;;;;;5057236;28;19935;-87
2023/11/06 04:21:14;;;;;;;;;;;9.70;99.90;;;;;;5062183;28;19913;-88
2023/11/06 04:23:39;;;;;;;;;;;9.60;99.90;;;;;;5078528;28;19908;-88
2023/11/06 04:26:05;;;;;;;;;;;9.50;99.90;;;;;;5074762;28;19916;-88
2023/11/06 04:28:31;;;;;;;;;;;9.40;99.90;;;;;;5071295;28;19920;-87
2023/11/06 04:30:56;;;;;;;;;;;9.30;99.90;;;;;;5075223;28;19920;-87
2023/11/06 04:33:22;;;;;;;;;;;9.30;99.90;;;;;;5073235;28;19917;-88
2023/11/06 04:35:48;;;;;;;;;;;9.20;99.90;;;;;;5073362;28;19909;-88
2023/11/06 04:38:13;;;;;;;;;;;9.20;99.90;;;;;;5071632;28;19949;-86
2023/11/06 04:40:39;;;;;;;;;;;9.20;99.90;;;;;;5065670;28;20063;-86
2023/11/06 04:43:05;;;;;;;;;;;9.20;99.90;;;;;;5066349;28;19917;-86
2023/11/06 04:45:31;;;;;;;;;;;9.20;99.90;;;;;;5069674;28;19909;-86
2023/11/06 04:47:57;;;;;;;;;;;9.30;99.90;;;;;;5073505;28;19911;-87
2023/11/06 04:50:23;;;;;;;;;;;9.30;99.90;;;;;;5069014;28;19913;-87
2023/11/06 04:52:49;;;;;;;;;;;9.30;99.90;;;;;;5068123;28;19917;-87
2023/11/06 04:55:15;;;;;;;;;;;9.20;99.90;;;;;;5052207;28;20012;-86
2023/11/06 04:57:40;;;;;;;;;;;9.30;99.90;;;;;;5069110;28;19916;-85
2023/11/06 05:00:06;;;;;;;;;;;9.30;99.90;;;;;;5068643;28;19920;-87
2023/11/06 05:02:33;;;;;;;;;;;9.30;99.90;;;;;;5072273;28;19916;-85
2023/11/06 05:04:59;;;;;;;;;;;9.20;99.90;;;;;;5069807;28;19920;-86
2023/11/06 05:07:25;;;;;;;;;;;9.30;99.90;;;;;;5073259;28;19920;-86
2023/11/06 05:09:50;;;;;;;;;;;9.30;99.90;;;;;;5071571;28;19924;-86
2023/11/06 05:12:16;;;;;;;;;;;9.20;99.90;;;;;;5070618;28;19964;-86
2023/11/06 05:14:42;;;;;;;;;;;9.10;99.90;;;;;;5069728;28;19909;-87
2023/11/06 05:17:07;;;;;;;;;;;9.10;99.90;;;;;;5064150;28;20411;-86
2023/11/06 05:19:37;;;;;;;;;;;9.10;99.90;;;;;;5066587;28;19948;-86
2023/11/06 05:22:03;;;;;;;;;;;9.20;99.90;;;;;;5056978;28;19924;-85
2023/11/06 05:24:29;;;;;;;;;;;9.20;99.90;;;;;;5065679;28;19909;-85
2023/11/06 05:26:55;;;;;;;;;;;9.10;99.90;;;;;;5050143;28;19909;-86
2023/11/06 05:29:21;;;;;;;;;;;9.10;99.90;;;;;;5071465;28;19911;-86
2023/11/06 05:31:46;;;;;;;;;;;9.20;99.90;;;;;;5061166;28;20048;-86
2023/11/06 05:34:12;;;;;;;;;;;9.20;99.90;;;;;;5048354;28;20385;-87
2023/11/06 05:36:40;;;;;;;;;;;9.20;99.90;;;;;;5044102;28;19913;-86
2023/11/06 05:39:05;;;;;;;;;;;9.20;99.90;;;;;;5051002;28;19909;-86
2023/11/06 05:41:31;;;;;;;;;;;9.30;99.90;;;;;;5057403;28;19972;-86
2023/11/06 05:43:57;;;;;;;;;;;9.30;99.90;;;;;;5055041;28;19956;-86
2023/11/06 05:46:22;;;;;;;;;;;9.30;99.90;;;;;;5053428;28;19955;-87
2023/11/06 05:48:48;;;;;;;;;;;9.40;99.90;;;;;;5053615;28;19978;-90
2023/11/06 05:51:14;;;;;;;;;;;9.40;99.90;;;;;;5053299;28;19923;-88
2023/11/06 05:53:39;;;;;;;;;;;9.40;99.90;;;;;;5054808;28;20313;-88
2023/11/06 05:56:05;;;;;;;;;;;9.40;99.90;;;;;;5053945;28;20003;-88
2023/11/06 05:58:31;;;;;;;;;;;9.50;99.90;;;;;;5056083;28;19954;-88
2023/11/06 06:00:56;;;;;;;;;;;9.50;99.90;;;;;;5055019;28;19916;-88
2023/11/06 06:03:22;;;;;;;;;;;9.50;99.90;;;;;;5056447;28;19909;-86
2023/11/06 06:05:48;;;;;;;;;;;9.60;99.90;;;;;;5052943;28;19915;-87
2023/11/06 06:08:15;;;;;;;;;;;9.60;99.90;;;;;;5052395;28;19943;-87
2023/11/06 06:10:40;;;;;;;;;;;9.40;99.90;;;;;;5053225;28;20000;-88
2023/11/06 06:13:06;;;;;;;;;;;9.50;99.90;;;;;;5054234;28;19952;-87
2023/11/06 06:15:32;;;;;;;;;;;9.50;99.90;;;;;;5049035;28;20019;-87
2023/11/06 06:17:58;;;;;;;;;;;9.50;99.90;;;;;;5039676;28;20366;-87
2023/11/06 06:20:23;;;;;;;;;;;9.50;99.90;;;;;;5042012;28;20000;-87
2023/11/06 06:22:50;;;;;;;;;;;9.60;99.90;;;;;;5053996;28;19971;-87
2023/11/06 06:25:16;;;;;;;;;;;9.60;99.90;;;;;;5052951;28;19912;-87
2023/11/06 06:27:42;;;;;;;;;;;9.70;99.90;;;;;;5053794;28;19986;-84
2023/11/06 06:30:09;;;;;;;;;;;9.70;99.90;;;;;;5060899;28;19972;-86
2023/11/06 06:32:35;;;;;;;;;;;9.80;99.90;;;;;;5066269;28;19974;-89
2023/11/06 06:35:02;;;;;;;;;;;9.80;99.90;;;;;;5054635;28;20367;-87
2023/11/06 06:37:28;;;;;;;;;;;9.90;99.90;;;;;;5053500;28;19916;-87
2023/11/06 06:39:54;;;;;;;;;;;9.90;99.90;;;;;;5069427;28;19913;-86
2023/11/06 06:42:19;;;;;;;;;;;10.10;99.90;;;;;;5061391;28;19928;-87
2023/11/06 06:44:45;;;;;;;;;;;10.10;99.90;;;;;;5053556;28;19913;-87
2023/11/06 06:47:11;;;;;;;;;;;10.10;99.90;;;;;;5052884;28;19909;-87
2023/11/06 06:49:40;;;;;;;;;;;10.10;99.90;;;;;;5056511;28;19952;-87
2023/11/06 06:52:09;;;;;;;;;;;10.10;99.90;;;;;;5054972;28;20274;-87
2023/11/06 06:54:35;;;;;;;;;;;10.10;99.90;;;;;;5057047;28;20043;-88
2023/11/06 06:57:05;;;;;;;;;;;10.10;99.90;;;;;;5056925;28;19912;-87
2023/11/06 06:59:30;;;;;;;;;;;10.10;99.90;;;;;;5064500;28;19973;-89
2023/11/06 07:01:56;;;;;;;;;;;10.20;99.90;;;;;;5060156;28;20393;-88
2023/11/06 07:04:23;;;;;;;;;;;10.20;99.90;;;;;;5076810;28;19912;-87
2023/11/06 07:06:49;;;;;;;;;;;10.20;99.90;;;;;;5061690;28;20008;-87
2023/11/06 07:09:15;;;;;;;;;;;10.30;99.90;;;;;;5060989;28;19945;-87
2023/11/06 07:11:40;;;;;;;;;;;10.20;99.90;;;;;;5069209;28;19927;-88
2023/11/06 07:14:06;;;;;;;;;;;10.30;99.90;;;;;;5055844;28;19913;-88
2023/11/06 07:16:31;;;;;;;;;;;10.30;99.90;;;;;;5063373;28;19951;-88
2023/11/06 07:18:57;;;;;;;;;;;10.20;99.90;;;;;;5067181;28;19962;-88
2023/11/06 07:21:23;;;;;;;;;;;10.20;99.90;;;;;;5068511;28;19928;-88
2023/11/06 07:23:49;;;;;;;;;;;10.20;99.90;;;;;;5047223;28;19962;-86
2023/11/06 07:26:15;;;;;;;;;;;10.20;99.90;;;;;;5058267;28;20004;-88
2023/11/06 07:28:41;;;;;;;;;;;10.20;99.90;;;;;;5056485;28;19955;-88
2023/11/06 07:31:06;;;;;;;;;;;10.10;99.90;;;;;;5054413;28;19909;-88
2023/11/06 07:33:32;;;;;;;;;;;10.10;99.90;;;;;;5053958;28;19948;-88
2023/11/06 07:35:58;;;;;;;;;;;10.20;99.90;;;;;;5049402;28;19920;-87
2023/11/06 07:38:24;;;;;;;;;;;10.30;99.90;;;;;;5055784;28;20393;-89
2023/11/06 07:40:50;;;;;;;;;;;10.40;99.90;;;;;;5047072;28;19953;-89
2023/11/06 07:43:16;;;;;;;;;;;10.40;99.90;;;;;;5044587;28;19951;-87
2023/11/06 07:45:41;;;;;;;;;;;10.40;99.90;;;;;;5051286;28;20373;-87
2023/11/06 07:48:07;;;;;;;;;;;10.40;99.90;;;;;;5064894;28;19913;-85
2023/11/06 07:50:33;;;;;;;;;;;10.30;99.90;;;;;;5049092;28;20314;-87
2023/11/06 07:52:59;;;;;;;;;;;10.30;99.90;;;;;;5062501;28;19931;-88
2023/11/06 07:55:24;;;;;;;;;;;10.30;99.90;;;;;;5067111;28;19913;-86
2023/11/06 07:57:50;;;;;;;;;;;10.20;99.90;;;;;;5056564;28;19931;-85
2023/11/06 08:00:16;;;;;;;;;;;10.20;99.90;;;;;;5054537;28;19909;-87
2023/11/06 08:02:42;;;;;;;;;;;10.20;99.90;;;;;;5054158;28;20020;-86
2023/11/06 08:05:11;;;;;;;;;;;10.20;99.90;;;;;;5053672;28;20305;-85
2023/11/06 08:07:38;;;;;;;;;;;10.30;99.90;;;;;;5053923;28;19909;-86
2023/11/06 08:10:07;;;;;;;;;;;10.40;99.90;;;;;;5051460;28;20372;-87
2023/11/06 08:12:33;;;;;;;;;;;10.40;99.90;;;;;;5055345;28;19962;-89
2023/11/06 08:14:59;;;;;;;;;;;10.40;99.90;;;;;;5054889;28;19912;-88
2023/11/06 08:17:24;;;;;;;;;;;10.40;99.90;;;;;;5056672;28;20005;-88
2023/11/06 08:19:52;;;;;;;;;;;10.30;99.90;;;;;;5052483;28;19912;-86
2023/11/06 08:22:20;;;;;;;;;;;10.20;99.90;;;;;;5055669;28;19908;-90
2023/11/06 08:24:46;;;;;;;;;;;10.10;99.90;;;;;;5060391;28;19916;-87
2023/11/06 08:27:11;;;;;;;;;;;10.00;99.90;;;;;;5065792;28;19917;-88
2023/11/06 08:29:42;;;;;;;;;;;10.00;99.90;;;;;;5074343;28;19908;-87
2023/11/06 08:32:08;;;;;;;;;;;9.90;99.90;;;;;;5059238;28;19913;-87
2023/11/06 08:34:34;;;;;;;;;;;9.70;99.90;;;;;;5045111;28;19956;-85
2023/11/06 08:37:00;;;;;;;;;;;9.80;99.90;;;;;;5061472;28;19916;-85
2023/11/06 08:39:25;;;;;;;;;;;9.80;99.90;;;;;;5066095;28;19917;-87
2023/11/06 08:41:51;;;;;;;;;;;9.80;99.90;;;;;;5057349;28;19919;-85
2023/11/06 08:44:16;;;;;;;;;;;9.80;99.90;;;;;;5047491;28;19917;-89
2023/11/06 08:46:43;;;;;;;;;;;9.80;99.90;;;;;;5053246;28;19909;-87
2023/11/06 08:49:09;;;;;;;;;;;9.90;99.90;;;;;;5039738;28;19996;-84
2023/11/06 08:51:35;;;;;;;;;;;9.90;99.90;;;;;;5047344;28;19916;-87
2023/11/06 08:54:01;;;;;;;;;;;9.90;99.90;;;;;;5046895;28;20008;-92
2023/11/06 08:56:29;;;;;;;;;;;9.90;99.90;;;;;;5059863;28;20282;-95
2023/11/06 08:58:55;;;;;;;;;;;9.90;99.90;;;;;;5064547;28;19913;-86
2023/11/06 09:01:21;;;;;;;;;;;9.90;99.90;;;;;;5059917;28;19966;-91
2023/11/06 09:03:47;;;;;;;;;;;10.00;99.90;;;;;;5057510;28;19908;-90
2023/11/06 09:06:12;;;;;;;;;;;10.20;99.90;;;;;;5055556;28;19940;-92
2023/11/06 09:08:38;;;;;;;;;;;10.30;99.90;;;;;;5060050;28;19909;-87
2023/11/06 09:11:05;;;;;;;;;;;10.30;99.90;;;;;;5062882;28;19924;-88
2023/11/06 09:13:35;;;;;;;;;;;10.30;99.90;;;;;;5054072;28;20276;-85
2023/11/06 09:16:04;;;;;;;;;;;10.40;99.90;;;;;;5052798;28;20051;-87
2023/11/06 09:18:30;;;;;;;;;;;10.40;99.90;;;;;;5058102;28;19974;-87
2023/11/06 09:20:57;;;;;;;;;;;10.50;99.90;;;;;;5053237;28;19999;-89
2023/11/06 09:23:23;;;;;;;;;;;10.50;99.90;;;;;;5061836;28;19913;-92
2023/11/06 09:25:49;;;;;;;;;;;10.60;99.90;;;;;;5059720;28;19908;-93
2023/11/06 09:28:15;;;;;;;;;;;10.60;99.90;;;;;;5072022;28;19959;-92
2023/11/06 09:30:46;;;;;;;;;;;10.60;99.90;;;;;;5067209;28;19913;-91
2023/11/06 09:33:13;;;;;;;;;;;10.70;99.90;;;;;;5056566;28;19916;-93
2023/11/06 09:35:39;;;;;;;;;;;10.80;99.90;;;;;;5054901;28;19980;-93
2023/11/06 09:38:04;;;;;;;;;;;10.80;99.90;;;;;;5065320;28;19909;-90
2023/11/06 09:40:30;;;;;;;;;;;10.90;99.90;;;;;;5069602;28;19924;-88
2023/11/06 09:42:56;;;;;;;;;;;11.00;99.90;;;;;;5052551;28;19909;-89
2023/11/06 09:45:22;;;;;;;;;;;11.00;99.90;;;;;;5051211;28;19932;-90
2023/11/06 09:47:49;;;;;;;;;;;11.00;99.90;;;;;;5059166;28;19909;-96
2023/11/06 09:50:21;;;;;;;;;;;11.10;99.90;;;;;;5064517;28;19909;-95
2023/11/06 09:52:52;;;;;;;;;;;11.20;99.90;;;;;;5041807;28;19921;-83
2023/11/06 09:55:18;;;;;;;;;;;11.20;99.90;;;;;;5045879;28;19909;-85
2023/11/06 09:57:45;;;;;;;;;;;11.20;99.90;;;;;;5041848;28;19936;-84
2023/11/06 10:00:14;;;;;;;;;;;11.20;99.90;;;;;;5044932;28;19913;-85
2023/11/06 10:02:39;;;;;;;;;;;11.30;99.90;;;;;;5051461;28;20346;-83
2023/11/06 10:05:12;;;;;;;;;;;11.30;99.90;;;;;;5043559;28;19924;-82
2023/11/06 10:07:38;;;;;;;;;;;11.30;99.90;;;;;;5051438;28;19962;-83
2023/11/06 10:10:10;;;;;;;;;;;11.40;99.90;;;;;;5051888;28;19925;-81
2023/11/06 10:12:36;;;;;;;;;;;11.40;99.90;;;;;;5054878;28;19991;-82
2023/11/06 10:15:05;;;;;;;;;;;11.40;99.90;;;;;;5060736;28;19909;-85
2023/11/06 10:17:31;;;;;;;;;;;11.40;99.90;;;;;;5061861;28;19917;-84
2023/11/06 10:20:13;;;;;;;;;;;11.40;99.90;;;;;;5065186;28;19986;-84
2023/11/06 10:22:55;;;;;;;;;;;11.50;99.90;;;;;;5047745;28;19912;-85
2023/11/06 10:25:27;;;;;;;;;;;11.40;99.90;;;;;;5046152;28;20106;-85
2023/11/06 10:27:54;;;;;;;;;;;11.50;99.90;;;;;;5054820;28;20381;-84
2023/11/06 10:30:20;;;;;;;;;;;11.60;99.90;;;;;;5054484;28;19912;-84
2023/11/06 10:32:46;;;;;;;;;;;11.60;99.90;;;;;;5055159;28;19921;-84
2023/11/06 10:35:12;;;;;;;;;;;11.60;99.90;;;;;;5055708;28;19916;-85
2023/11/06 10:37:39;;;;;;;;;;;11.50;99.90;;;;;;5049756;28;19952;-84
2023/11/06 10:40:06;;;;;;;;;;;11.50;99.90;;;;;;5054366;28;20689;-83
2023/11/06 10:42:33;;;;;;;;;;;11.40;99.90;;;;;;5056286;28;19963;-86
2023/11/06 10:44:59;;;;;;;;;;;11.30;99.90;;;;;;5055429;28;19915;-82
2023/11/06 10:47:26;;;;;;;;;;;11.30;99.90;;;;;;5046750;28;19956;-84
2023/11/06 10:49:58;;;;;;;;;;;11.30;99.90;;;;;;5055407;28;19920;-84
2023/11/06 10:52:24;;;;;;;;;;;11.30;99.90;;;;;;5047234;28;20007;-83
2023/11/06 10:54:50;;;;;;;;;;;11.30;99.90;;;;;;5055144;28;20301;-83
2023/11/06 10:57:17;;;;;;;;;;;11.20;99.90;;;;;;5055091;28;19931;-88
2023/11/06 10:59:43;;;;;;;;;;;11.30;99.90;;;;;;5050249;28;19923;-88
2023/11/06 11:02:19;;;;;;;;;;;11.20;99.90;;;;;;5045374;28;19909;-88
2023/11/06 11:04:51;;;;;;;;;;;11.20;99.90;;;;;;5054925;28;19966;-89
2023/11/06 11:07:18;;;;;;;;;;;11.30;99.90;;;;;;5055809;28;20289;-87
2023/11/06 11:09:44;;;;;;;;;;;11.30;99.90;;;;;;5055835;28;19919;-90
2023/11/06 11:12:10;;;;;;;;;;;11.30;99.90;;;;;;5055671;28;19928;-86
2023/11/06 11:14:35;;;;;;;;;;;11.30;99.90;;;;;;5055480;28;19909;-86
2023/11/06 11:17:10;;;;;;;;;;;11.30;99.90;;;;;;5056334;28;20351;-89
2023/11/06 11:19:36;;;;;;;;;;;11.20;99.90;;;;;;5054910;28;19999;-86
2023/11/06 11:22:13;;;;;;;;;;;11.10;99.90;;;;;;5046195;28;19950;-85
2023/11/06 11:24:41;;;;;;;;;;;11.20;99.90;;;;;;5053038;28;19920;-86
2023/11/06 11:27:16;;;;;;;;;;;11.20;99.90;;;;;;5053336;28;20003;-88
2023/11/06 11:29:53;;;;;;;;;;;11.20;99.90;;;;;;5050269;28;19915;-85
2023/11/06 11:32:42;;;;;;;;;;;11.20;99.90;;;;;;5054129;28;20012;-86
2023/11/06 11:35:25;;;;;;;;;;;11.20;99.90;;;;;;5058060;28;19916;-86
2023/11/06 11:37:55;;;;;;;;;;;11.30;99.90;;;;;;5045207;28;19917;-87
2023/11/06 11:40:20;;;;;;;;;;;11.20;99.90;;;;;;5053022;28;20271;-85
2023/11/06 11:42:46;;;;;;;;;;;11.20;99.90;;;;;;5054941;28;19963;-86
2023/11/06 11:45:30;;;;;;;;;;;11.20;99.90;;;;;;5056863;28;19913;-85
2023/11/06 11:47:55;;;;;;;;;;;11.20;99.90;;;;;;5059713;28;19912;-88
2023/11/06 11:50:27;;;;;;;;;;;11.10;99.90;;;;;;5060077;28;19947;-84
2023/11/06 11:52:53;;;;;;;;;;;11.10;99.90;;;;;;5041271;28;19975;-84
2023/11/06 11:55:34;;;;;;;;;;;11.10;99.90;;;;;;5054579;28;19962;-83
2023/11/06 11:58:00;;;;;;;;;;;11.10;99.90;;;;;;5058091;28;19952;-83
2023/11/06 12:00:26;;;;;;;;;;;11.00;99.90;;;;;;5053959;28;20386;-85
2023/11/06 12:03:02;;;;;;;;;;;10.90;99.90;;;;;;5052607;28;19969;-84
2023/11/06 12:05:28;;;;;;;;;;;10.80;99.90;;;;;;5055293;28;19999;-84
2023/11/06 12:07:54;;;;;;;;;;;10.80;99.90;;;;;;5067494;28;19916;-83
2023/11/06 12:10:27;;;;;;;;;;;10.80;99.90;;;;;;5046015;28;19921;-84
2023/11/06 12:12:53;;;;;;;;;;;10.90;99.90;;;;;;5053743;28;19928;-85
2023/11/06 12:15:28;;;;;;;;;;;10.90;99.90;;;;;;5050798;28;19917;-83
2023/11/06 12:17:54;;;;;;;;;;;10.80;99.90;;;;;;5050331;28;19909;-86
2023/11/06 12:20:20;;;;;;;;;;;10.90;99.90;;;;;;5058337;28;19984;-85
2023/11/06 12:22:46;;;;;;;;;;;10.80;99.90;;;;;;5057515;28;19944;-87
2023/11/06 12:25:12;;;;;;;;;;;10.80;99.90;;;;;;5051804;28;19920;-85
2023/11/06 12:27:38;;;;;;;;;;;10.80;99.90;;;;;;5053098;28;20278;-82
2023/11/06 12:30:06;;;;;;;;;;;10.80;99.90;;;;;;5053503;28;19915;-87
2023/11/06 12:32:32;;;;;;;;;;;10.80;99.90;;;;;;5052181;28;19925;-83
2023/11/06 12:35:25;;;;;;;;;;;10.80;99.90;;;;;;5045347;28;19920;-83
2023/11/06 12:37:51;;;;;;;;;;;10.80;99.90;;;;;;5066076;28;20003;-84
2023/11/06 12:40:18;;;;;;;;;;;10.80;99.90;;;;;;5054512;28;20003;-84
2023/11/06 12:42:47;;;;;;;;;;;10.80;99.90;;;;;;5050511;28;19909;-84
2023/11/06 12:45:31;;;;;;;;;;;10.80;99.90;;;;;;5051909;28;20045;-85
2023/11/06 12:48:02;;;;;;;;;;;10.80;99.90;;;;;;5040498;28;20007;-84
2023/11/06 12:50:31;;;;;;;;;;;10.80;99.90;;;;;;5051297;28;20000;-83
2023/11/06 12:52:57;;;;;;;;;;;10.80;99.90;;;;;;5043493;28;20290;-84
2023/11/06 12:55:23;;;;;;;;;;;10.80;99.90;;;;;;5047272;28;19916;-83
2023/11/06 12:57:50;;;;;;;;;;;10.80;99.90;;;;;;5047770;28;19916;-82
2023/11/06 13:00:28;;;;;;;;;;;10.80;99.90;;;;;;5052828;28;19913;-84
2023/11/06 13:02:54;;;;;;;;;;;10.80;99.90;;;;;;5051436;28;20406;-84
2023/11/06 13:05:20;;;;;;;;;;;10.90;99.90;;;;;;5047797;28;19920;-83
2023/11/06 13:07:50;;;;;;;;;;;10.90;99.90;;;;;;5042077;28;19913;-82
2023/11/06 13:10:16;;;;;;;;;;;10.90;99.90;;;;;;5052516;28;20402;-84
2023/11/06 13:12:41;;;;;;;;;;;10.90;99.90;;;;;;5052591;28;19925;-85
2023/11/06 13:15:10;;;;;;;;;;;10.90;99.90;;;;;;5050926;28;20426;-86
2023/11/06 13:17:36;;;;;;;;;;;10.90;99.90;;;;;;5054417;28;19931;-83
2023/11/06 13:20:03;;;;;;;;;;;10.80;99.90;;;;;;5053538;28;20004;-85
2023/11/06 13:22:28;;;;;;;;;;;10.80;99.90;;;;;;5061281;28;19909;-83
2023/11/06 13:24:55;;;;;;;;;;;10.80;99.90;;;;;;5055323;28;20564;-84
2023/11/06 13:27:21;;;;;;;;;;;10.90;99.90;;;;;;5047787;28;19917;-84
2023/11/06 13:29:47;;;;;;;;;;;10.90;99.90;;;;;;5052677;28;19951;-85
2023/11/06 13:32:13;;;;;;;;;;;10.90;99.90;;;;;;5036935;28;19960;-84
2023/11/06 13:34:39;;;;;;;;;;;10.90;99.90;;;;;;5031509;28;20354;-83
2023/11/06 13:37:06;;;;;;;;;;;10.90;99.90;;;;;;5050004;28;19952;-84
2023/11/06 13:39:31;;;;;;;;;;;10.90;99.90;;;;;;5049590;28;19909;-84
2023/11/06 13:41:59;;;;;;;;;;;10.90;99.90;;;;;;5047281;28;19909;-91
2023/11/06 13:44:25;;;;;;;;;;;11.00;99.90;;;;;;5050921;28;19913;-82
2023/11/06 13:46:52;;;;;;;;;;;11.00;99.90;;;;;;5046340;28;19961;-83
2023/11/06 13:49:18;;;;;;;;;;;10.90;99.90;;;;;;5035910;28;19992;-83
2023/11/06 13:51:48;;;;;;;;;;;10.90;99.90;;;;;;5040901;28;19919;-83
2023/11/06 13:54:21;;;;;;;;;;;10.90;99.90;;;;;;5047991;28;19967;-83
2023/11/06 13:56:52;;;;;;;;;;;10.90;99.90;;;;;;5055987;28;19984;-83
2023/11/06 13:59:28;;;;;;;;;;;10.90;99.90;;;;;;5052375;28;19916;-82
2023/11/06 14:02:00;;;;;;;;;;;10.90;99.90;;;;;;5037518;28;19935;-83
2023/11/06 14:04:30;;;;;;;;;;;10.80;99.90;;;;;;5047001;28;19959;-83
2023/11/06 14:06:56;;;;;;;;;;;10.90;99.90;;;;;;5055896;28;19913;-82
2023/11/06 14:11:56;;;;;;;;;;;10.90;99.90;;;;;;5049933;28;19935;-84
2023/11/06 14:14:22;;;;;;;;;;;10.80;99.90;;;;;;5038872;28;20329;-83
2023/11/06 14:16:55;;;;;;;;;;;10.90;99.90;;;;;;5055591;28;19909;-83
2023/11/06 14:19:23;;;;;;;;;;;10.90;99.90;;;;;;5052004;28;19939;-83
2023/11/06 14:21:49;;;;;;;;;;;10.90;99.90;;;;;;5055137;28;20329;-84